Time;durP1;ratioP1;P1;durP2;ratioP2;P2;SDS_P1;SDS_P2;PMS_P1;PMS_P2;Temp;Humidity;BMP_temperature;BMP_pressure;BME280_temperature;BME280_humidity;BME280_pressure;Samples;Min_cycle;Max_cycle;Signal;HPM_P1;HPM_P2
2023/05/16 00:00:17;;;;;;;;;;;;;;;-140.72;100.00;52886.00;5083725;28;19928;-70
2023/05/16 00:02:42;;;;;;;;;;;;;;;-140.72;100.00;52871.78;5096466;28;19920;-70
2023/05/16 00:05:09;;;;;;;;;;;;;;;-140.72;100.00;52896.16;5087715;28;19924;-70
2023/05/16 00:07:35;;;;;;;;;;;;;;;-140.72;100.00;52865.69;5088766;28;19923;-70
2023/05/16 00:10:00;;;;;;;;;;;;;;;-140.72;100.00;52847.44;5082301;28;19924;-70
2023/05/16 00:12:27;;;;;;;;;;;;;;;-140.72;100.00;52912.38;5086363;28;19920;-70
2023/05/16 00:14:52;;;;;;;;;;;;;;;-140.72;100.00;52902.22;5091884;28;19923;-70
2023/05/16 00:17:28;;;;;;;;;;;;;;;-140.72;100.00;52898.16;5092254;28;19916;-70
2023/05/16 00:19:57;;;;;;;;;;;;;;;-140.72;100.00;52877.88;5079903;28;19927;-70
2023/05/16 00:22:22;;;;;;;;;;;;;;;-140.72;100.00;52902.22;5079853;28;19916;-70
2023/05/16 00:24:47;;;;;;;;;;;;;;;-140.72;100.00;52881.94;5092540;28;19924;-70
2023/05/16 00:27:13;;;;;;;;;;;;;;;-140.72;100.00;52894.13;5081321;28;19920;-70
2023/05/16 00:29:38;;;;;;;;;;;;;;;-140.72;100.00;52906.28;5089130;28;20298;-70
2023/05/16 00:32:03;;;;;;;;;;;;;;;-140.72;100.00;52881.94;5091704;28;19927;-71
2023/05/16 00:34:28;;;;;;;;;;;;;;;-140.72;100.00;52908.31;5099953;28;20014;-70
2023/05/16 00:36:54;;;;;;;;;;;;;;;-140.72;100.00;52900.19;5089693;28;19989;-70
2023/05/16 00:39:19;;;;;;;;;;;;;;;-140.72;100.00;52902.22;5092963;28;20400;-70
2023/05/16 00:41:45;;;;;;;;;;;;;;;-140.72;100.00;52910.34;5083542;28;19924;-70
2023/05/16 00:44:10;;;;;;;;;;;;;;;-140.72;100.00;52926.59;5077778;28;19916;-70
2023/05/16 00:46:36;;;;;;;;;;;;;;;-140.72;100.00;52912.38;5086989;28;19972;-70
2023/05/16 00:49:01;;;;;;;;;;;;;;;-140.72;100.00;52910.34;5082750;28;19916;-70
2023/05/16 00:51:27;;;;;;;;;;;;;;;-140.72;100.00;52912.38;5090252;28;19974;-70
2023/05/16 00:53:52;;;;;;;;;;;;;;;-140.72;100.00;52946.88;5083267;28;19916;-70
2023/05/16 00:56:18;;;;;;;;;;;;;;;-140.72;100.00;52881.94;5093178;28;20294;-70
2023/05/16 00:58:43;;;;;;;;;;;;;;;-140.72;100.00;52883.97;5088750;28;19999;-69
2023/05/16 01:01:08;;;;;;;;;;;;;;;-140.72;100.00;52908.31;5090188;28;19920;-70
2023/05/16 01:03:34;;;;;;;;;;;;;;;-140.72;100.00;52922.53;5088087;28;19923;-70
2023/05/16 01:05:59;;;;;;;;;;;;;;;-140.72;100.00;52902.22;5093393;28;20331;-70
2023/05/16 01:08:24;;;;;;;;;;;;;;;-140.72;100.00;52926.59;5093134;28;20335;-70
2023/05/16 01:11:19;;;;;;;;;;;;;;;-140.72;100.00;52932.66;5096171;28;20320;-70
2023/05/16 01:13:59;;;;;;;;;;;;;;;-140.72;100.00;52894.13;5085771;28;19959;-70
2023/05/16 01:16:37;;;;;;;;;;;;;;;-140.72;100.00;52886.00;5092697;28;19932;-70
2023/05/16 01:19:21;;;;;;;;;;;;;;;-140.72;100.00;52926.59;5085733;28;19916;-69
2023/05/16 01:22:14;;;;;;;;;;;;;;;-140.72;100.00;52944.84;5092600;28;19920;-70
2023/05/16 01:24:59;;;;;;;;;;;;;;;-140.72;100.00;52932.66;5095795;28;20480;-70
2023/05/16 01:27:26;;;;;;;;;;;;;;;-140.72;100.00;52902.22;5088070;28;20053;-71
2023/05/16 01:29:54;;;;;;;;;;;;;;;-140.72;100.00;52938.75;5090068;28;19920;-70
2023/05/16 01:32:21;;;;;;;;;;;;;;;-140.72;100.00;52904.25;5086285;28;19973;-70
2023/05/16 01:34:46;;;;;;;;;;;;;;;-140.72;100.00;52926.59;5088977;28;20323;-70
2023/05/16 01:37:16;;;;;;;;;;;;;;;-140.72;100.00;52928.63;5089783;28;20008;-70
2023/05/16 01:39:50;;;;;;;;;;;;;;;-140.72;100.00;52916.44;5098085;28;20014;-70
2023/05/16 01:42:18;;;;;;;;;;;;;;;-140.72;100.00;52952.97;5090514;28;19947;-70
2023/05/16 01:44:55;;;;;;;;;;;;;;;-140.72;100.00;52918.47;5076575;28;20005;-70
2023/05/16 01:47:24;;;;;;;;;;;;;;;-140.72;100.00;52942.81;5093683;28;19927;-70
2023/05/16 01:49:52;;;;;;;;;;;;;;;-140.72;100.00;52938.75;5096838;28;19916;-70
2023/05/16 01:52:31;;;;;;;;;;;;;;;-140.72;100.00;52906.28;5086746;28;19928;-70
2023/05/16 01:54:57;;;;;;;;;;;;;;;-140.72;100.00;52963.13;5080640;28;19923;-70
2023/05/16 01:57:24;;;;;;;;;;;;;;;-140.72;100.00;52955.00;5090565;28;20367;-70
2023/05/16 01:59:50;;;;;;;;;;;;;;;-140.72;100.00;52946.88;5094891;28;19923;-70
2023/05/16 02:02:18;;;;;;;;;;;;;;;-140.72;100.00;52922.53;5090813;28;20014;-70
2023/05/16 02:04:43;;;;;;;;;;;;;;;-140.72;100.00;52914.41;5095564;28;19931;-70
2023/05/16 02:07:13;;;;;;;;;;;;;;;-140.72;100.00;52963.13;5089909;28;19920;-70
2023/05/16 02:09:38;;;;;;;;;;;;;;;-140.72;100.00;52922.53;5089435;28;20017;-70
2023/05/16 02:12:16;;;;;;;;;;;;;;;-140.72;100.00;52930.66;5083029;28;19955;-70
2023/05/16 02:14:42;;;;;;;;;;;;;;;-140.72;100.00;52946.88;5075580;28;20242;-70
2023/05/16 02:17:07;;;;;;;;;;;;;;;-140.72;100.00;52963.13;5088660;28;20018;-70
2023/05/16 02:19:32;;;;;;;;;;;;;;;-140.72;100.00;52942.81;5086410;28;20004;-70
2023/05/16 02:21:57;;;;;;;;;;;;;;;-140.72;100.00;52883.97;5080485;28;19932;-70
2023/05/16 02:24:22;;;;;;;;;;;;;;;-140.72;100.00;52981.38;5101112;28;20003;-70
2023/05/16 02:26:48;;;;;;;;;;;;;;;-140.72;100.00;52950.94;5087312;28;19916;-70
2023/05/16 02:29:15;;;;;;;;;;;;;;;-140.72;100.00;52936.72;5106641;28;19916;-70
2023/05/16 02:31:41;;;;;;;;;;;;;;;-140.72;100.00;52922.53;5087120;28;19923;-70
2023/05/16 02:34:08;;;;;;;;;;;;;;;-140.72;100.00;52924.56;5085254;28;19920;-70
2023/05/16 02:36:34;;;;;;;;;;;;;;;-140.72;100.00;52912.38;5093759;28;19923;-71
2023/05/16 02:39:00;;;;;;;;;;;;;;;-140.72;100.00;52938.75;5082099;28;20244;-70
2023/05/16 02:41:26;;;;;;;;;;;;;;;-140.72;100.00;52952.97;5086811;28;19923;-70
2023/05/16 02:43:51;;;;;;;;;;;;;;;-140.72;100.00;52952.97;5095311;28;19916;-70
2023/05/16 02:46:23;;;;;;;;;;;;;;;-140.72;100.00;52955.00;5086861;28;19924;-70
2023/05/16 02:48:50;;;;;;;;;;;;;;;-140.72;100.00;52928.63;5081004;28;19928;-70
2023/05/16 02:51:15;;;;;;;;;;;;;;;-140.72;100.00;52940.78;5076778;28;19917;-70
2023/05/16 02:53:40;;;;;;;;;;;;;;;-140.72;100.00;52993.56;5094922;28;20278;-70
2023/05/16 02:56:05;;;;;;;;;;;;;;;-140.72;100.00;52940.78;5101439;28;19916;-70
2023/05/16 02:58:31;;;;;;;;;;;;;;;-140.72;100.00;52983.41;5094398;28;19916;-70
2023/05/16 03:00:57;;;;;;;;;;;;;;;-140.72;100.00;52952.97;5086329;28;19952;-70
2023/05/16 03:03:22;;;;;;;;;;;;;;;-140.72;100.00;52944.84;5079899;28;20382;-70
2023/05/16 03:05:48;;;;;;;;;;;;;;;-140.72;100.00;52959.06;5093798;28;19922;-70
2023/05/16 03:08:13;;;;;;;;;;;;;;;-140.72;100.00;52914.41;5082957;28;20441;-70
2023/05/16 03:10:38;;;;;;;;;;;;;;;-140.72;100.00;52950.94;5094374;28;19923;-70
2023/05/16 03:13:03;;;;;;;;;;;;;;;-140.72;100.00;52946.88;5093885;28;19981;-70
2023/05/16 03:15:28;;;;;;;;;;;;;;;-140.72;100.00;52922.53;5106116;28;20016;-70
2023/05/16 03:17:54;;;;;;;;;;;;;;;-140.72;100.00;52906.28;5086320;28;20011;-70
2023/05/16 03:20:19;;;;;;;;;;;;;;;-140.72;100.00;52971.22;5088593;28;19923;-70
2023/05/16 03:22:44;;;;;;;;;;;;;;;-140.72;100.00;52950.94;5093335;28;20261;-70
2023/05/16 03:25:09;;;;;;;;;;;;;;;-140.72;100.00;52928.63;5085395;28;19916;-71
2023/05/16 03:27:35;;;;;;;;;;;;;;;-140.72;100.00;52946.88;5087670;28;19923;-71
2023/05/16 03:30:00;;;;;;;;;;;;;;;-140.72;100.00;52948.91;5090346;28;20010;-70
2023/05/16 03:32:25;;;;;;;;;;;;;;;-140.72;100.00;52940.78;5096891;28;19919;-70
2023/05/16 03:34:50;;;;;;;;;;;;;;;-140.72;100.00;52934.69;5086821;28;20003;-71
2023/05/16 03:37:16;;;;;;;;;;;;;;;-140.72;100.00;52930.66;5078967;28;19917;-70
2023/05/16 03:39:41;;;;;;;;;;;;;;;-140.72;100.00;52916.44;5099038;28;19923;-68
2023/05/16 03:42:06;;;;;;;;;;;;;;;-140.72;100.00;52971.22;5090694;28;20435;-70
2023/05/16 03:44:31;;;;;;;;;;;;;;;-140.72;100.00;52902.22;5086982;28;19970;-71
2023/05/16 03:46:57;;;;;;;;;;;;;;;-140.72;100.00;52910.34;5104093;28;19924;-70
2023/05/16 03:49:26;;;;;;;;;;;;;;;-140.72;100.00;52977.31;5091872;28;19916;-70
2023/05/16 03:51:51;;;;;;;;;;;;;;;-140.72;100.00;52975.28;5090250;28;19917;-70
2023/05/16 03:54:17;;;;;;;;;;;;;;;-140.72;100.00;52936.72;5086345;28;19927;-70
2023/05/16 03:56:42;;;;;;;;;;;;;;;-140.72;100.00;52959.06;5080178;28;19920;-70
2023/05/16 03:59:07;;;;;;;;;;;;;;;-140.72;100.00;52979.34;5087807;28;19923;-70
2023/05/16 04:01:32;;;;;;;;;;;;;;;-140.72;100.00;52942.81;5088124;28;19926;-70
2023/05/16 04:03:57;;;;;;;;;;;;;;;-140.72;100.00;52952.97;5086499;28;19916;-70
2023/05/16 04:06:23;;;;;;;;;;;;;;;-140.72;100.00;52900.19;5091724;28;19924;-70
2023/05/16 04:08:48;;;;;;;;;;;;;;;-140.72;100.00;52932.66;5093129;28;19985;-70
2023/05/16 04:11:13;;;;;;;;;;;;;;;-140.72;100.00;52936.72;5092872;28;19966;-70
2023/05/16 04:13:38;;;;;;;;;;;;;;;-140.72;100.00;52948.91;5097690;28;19916;-71
2023/05/16 04:16:04;;;;;;;;;;;;;;;-140.72;100.00;52920.50;5088265;28;19955;-72
2023/05/16 04:18:29;;;;;;;;;;;;;;;-140.72;100.00;52940.78;5082323;28;19927;-72
2023/05/16 04:20:55;;;;;;;;;;;;;;;-140.72;100.00;52926.59;5097722;28;19924;-72
2023/05/16 04:23:20;;;;;;;;;;;;;;;-140.72;100.00;52952.97;5090805;28;19920;-72
2023/05/16 04:25:45;;;;;;;;;;;;;;;-140.72;100.00;52918.47;5091689;28;19916;-73
2023/05/16 04:28:11;;;;;;;;;;;;;;;-140.72;100.00;52942.81;5102504;28;19934;-72
2023/05/16 04:30:37;;;;;;;;;;;;;;;-140.72;100.00;52918.47;5094633;28;19981;-72
2023/05/16 04:33:02;;;;;;;;;;;;;;;-140.72;100.00;52928.63;5108416;28;20010;-72
2023/05/16 04:35:27;;;;;;;;;;;;;;;-140.72;100.00;52928.63;5087885;28;19942;-72
2023/05/16 04:37:52;;;;;;;;;;;;;;;-140.72;100.00;52983.41;5087240;28;19921;-72
2023/05/16 04:40:18;;;;;;;;;;;;;;;-140.72;100.00;52922.53;5080062;28;19917;-72
2023/05/16 04:45:46;;;;;;;;;;;;;;;-140.72;100.00;52918.47;5087280;28;19974;-74
2023/05/16 04:48:12;;;;;;;;;;;;;;;-140.72;100.00;52896.16;5090382;28;19928;-72
2023/05/16 04:50:37;;;;;;;;;;;;;;;-140.72;100.00;52952.97;5094951;28;19920;-72
2023/05/16 04:53:02;;;;;;;;;;;;;;;-140.72;100.00;52908.31;5086644;28;20007;-72
2023/05/16 04:55:28;;;;;;;;;;;;;;;-140.72;100.00;52910.34;5090674;28;19916;-73
2023/05/16 04:57:53;;;;;;;;;;;;;;;-140.72;100.00;52902.22;5102131;28;19973;-75
2023/05/16 05:00:18;;;;;;;;;;;;;;;-140.72;100.00;52894.13;5093996;28;19969;-71
2023/05/16 05:02:44;;;;;;;;;;;;;;;-140.72;100.00;52879.91;5087675;28;20367;-71
2023/05/16 05:05:10;;;;;;;;;;;;;;;-140.72;100.00;52869.75;5090403;28;20268;-73
2023/05/16 05:07:35;;;;;;;;;;;;;;;-140.72;100.00;52827.16;5083108;28;20392;-71
2023/05/16 05:10:00;;;;;;;;;;;;;;;-140.72;100.00;52890.06;5093287;28;20262;-71
2023/05/16 05:12:26;;;;;;;;;;;;;;;-140.72;100.00;52892.09;5097004;28;19916;-70
2023/05/16 05:14:52;;;;;;;;;;;;;;;-140.72;100.00;52890.06;5090083;28;20012;-71
2023/05/16 05:17:20;;;;;;;;;;;;;;;-140.72;100.00;52879.91;5086228;28;19916;-70
2023/05/16 05:19:47;;;;;;;;;;;;;;;-140.72;100.00;52896.16;5082424;28;19927;-71
2023/05/16 05:22:21;;;;;;;;;;;;;;;-140.72;100.00;52861.66;5091807;28;19970;-71
2023/05/16 05:24:46;;;;;;;;;;;;;;;-140.72;100.00;52871.78;5095601;28;19920;-70
2023/05/16 05:27:11;;;;;;;;;;;;;;;-140.72;100.00;52906.28;5089370;28;19920;-70
2023/05/16 05:29:37;;;;;;;;;;;;;;;-140.72;100.00;52914.41;5101365;28;19934;-71
2023/05/16 05:32:02;;;;;;;;;;;;;;;-140.72;100.00;52865.69;5085920;28;19916;-70
2023/05/16 05:34:27;;;;;;;;;;;;;;;-140.72;100.00;52881.94;5091823;28;19927;-70
2023/05/16 05:36:52;;;;;;;;;;;;;;;-140.72;100.00;52861.66;5087212;28;20014;-70
2023/05/16 05:39:18;;;;;;;;;;;;;;;-140.72;100.00;52898.16;5090100;28;19916;-70
2023/05/16 05:41:43;;;;;;;;;;;;;;;-140.72;100.00;52873.81;5086724;28;19916;-70
2023/05/16 05:44:09;;;;;;;;;;;;;;;-140.72;100.00;52835.25;5094683;28;19962;-70
2023/05/16 05:46:35;;;;;;;;;;;;;;;-140.72;100.00;52857.59;5091076;28;19959;-70
2023/05/16 05:49:00;;;;;;;;;;;;;;;-140.72;100.00;52869.75;5076149;28;20278;-70
2023/05/16 05:51:26;;;;;;;;;;;;;;;-140.72;100.00;52857.59;5109203;27;19926;-70
2023/05/16 05:53:51;;;;;;;;;;;;;;;-140.72;100.00;52869.75;5094964;28;19927;-70
2023/05/16 05:56:17;;;;;;;;;;;;;;;-140.72;100.00;52835.25;5100277;28;19930;-72
2023/05/16 05:58:42;;;;;;;;;;;;;;;-140.72;100.00;52812.94;5109617;27;20447;-73
2023/05/16 06:01:09;;;;;;;;;;;;;;;-140.72;100.00;52806.84;5084884;28;19920;-72
2023/05/16 06:03:34;;;;;;;;;;;;;;;-140.72;100.00;52800.75;5081491;28;20078;-72
2023/05/16 06:06:00;;;;;;;;;;;;;;;-140.72;100.00;52825.13;5092607;28;19971;-72
2023/05/16 06:08:25;;;;;;;;;;;;;;;-140.72;100.00;52792.66;5110210;28;20371;-76
2023/05/16 06:10:50;;;;;;;;;;;;;;;-140.72;100.00;52806.84;5092888;28;19927;-71
2023/05/16 06:13:15;;;;;;;;;;;;;;;-140.72;100.00;52833.22;5097325;28;20415;-70
2023/05/16 06:15:41;;;;;;;;;;;;;;;-140.72;100.00;52808.88;5077821;28;19916;-70
2023/05/16 06:18:06;;;;;;;;;;;;;;;-140.72;100.00;52808.88;5098302;28;20355;-70
2023/05/16 06:20:31;;;;;;;;;;;;;;;-140.72;100.00;52819.03;5074622;28;20390;-70
2023/05/16 06:22:56;;;;;;;;;;;;;;;-140.72;100.00;52829.19;5094429;28;19965;-70
2023/05/16 06:25:22;;;;;;;;;;;;;;;-140.72;100.00;52863.66;5110884;28;19962;-70
2023/05/16 06:27:47;;;;;;;;;;;;;;;-140.72;100.00;52831.19;5093810;28;19916;-70
2023/05/16 06:30:12;;;;;;;;;;;;;;;-140.72;100.00;52810.91;5108510;28;19916;-70
2023/05/16 06:32:39;;;;;;;;;;;;;;;-140.72;100.00;52821.06;5104171;28;19920;-70
2023/05/16 06:35:05;;;;;;;;;;;;;;;-140.72;100.00;52788.59;5094556;27;20359;-71
2023/05/16 06:37:30;;;;;;;;;;;;;;;-140.72;100.00;52800.75;5101685;28;19973;-70
2023/05/16 06:39:55;;;;;;;;;;;;;;;-140.72;100.00;52800.75;5102969;28;19916;-70
2023/05/16 06:42:20;;;;;;;;;;;;;;;-140.72;100.00;52764.25;5098403;28;20285;-70
2023/05/16 06:44:46;;;;;;;;;;;;;;;-140.72;100.00;52837.28;5091060;28;19916;-73
2023/05/16 06:47:11;;;;;;;;;;;;;;;-140.72;100.00;52778.44;5089456;28;19920;-73
2023/05/16 06:49:36;;;;;;;;;;;;;;;-140.72;100.00;52817.00;5095699;28;20356;-73
2023/05/16 06:52:02;;;;;;;;;;;;;;;-140.72;100.00;52790.63;5114424;28;19915;-72
2023/05/16 06:54:27;;;;;;;;;;;;;;;-140.72;100.00;52796.72;5106733;28;20015;-73
2023/05/16 06:56:52;;;;;;;;;;;;;;;-140.72;100.00;52758.16;5098411;28;20302;-73
2023/05/16 06:59:17;;;;;;;;;;;;;;;-140.72;100.00;52780.47;5111729;28;19915;-73
2023/05/16 07:01:43;;;;;;;;;;;;;;;-140.72;100.00;52737.84;5093626;28;20284;-72
2023/05/16 07:04:08;;;;;;;;;;;;;;;-140.72;100.00;52825.13;5085256;28;20353;-72
2023/05/16 07:06:33;;;;;;;;;;;;;;;-140.72;100.00;52754.09;5082980;28;20014;-72
2023/05/16 07:08:59;;;;;;;;;;;;;;;-140.72;100.00;52760.19;5083376;28;20003;-72
2023/05/16 07:11:24;;;;;;;;;;;;;;;-140.72;100.00;52800.75;5083761;28;19973;-71
2023/05/16 07:13:49;;;;;;;;;;;;;;;-140.72;100.00;52796.72;5078284;28;20302;-71
2023/05/16 07:16:15;;;;;;;;;;;;;;;-140.72;100.00;52784.53;5079599;28;19916;-72
2023/05/16 07:18:40;;;;;;;;;;;;;;;-140.72;100.00;52780.47;5090895;28;19923;-72
2023/05/16 07:21:05;;;;;;;;;;;;;;;-140.72;100.00;52821.06;5079877;28;20309;-72
2023/05/16 07:23:30;;;;;;;;;;;;;;;-140.72;100.00;52784.53;5092133;28;19921;-72
2023/05/16 07:25:56;;;;;;;;;;;;;;;-140.72;100.00;52784.53;5094168;28;19916;-71
2023/05/16 07:28:22;;;;;;;;;;;;;;;-140.72;100.00;52812.94;5078287;28;20242;-71
2023/05/16 07:30:47;;;;;;;;;;;;;;;-140.72;100.00;52756.13;5088359;28;19973;-71
2023/05/16 07:33:12;;;;;;;;;;;;;;;-140.72;100.00;52786.56;5091399;28;19916;-71
2023/05/16 07:35:38;;;;;;;;;;;;;;;-140.72;100.00;52776.41;5081008;28;19932;-72
2023/05/16 07:38:03;;;;;;;;;;;;;;;-140.72;72.08;52711.47;5082480;28;19989;-71
2023/05/16 07:40:28;;;;;;;;;;;;;;;-140.72;61.34;52756.13;5074298;28;19916;-71
2023/05/16 07:42:53;;;;;;;;;;;;;;;-140.72;56.05;52721.63;5085872;28;19916;-71
2023/05/16 07:45:19;;;;;;;;;;;;;;;-140.72;52.33;52754.09;5082330;28;19924;-71
2023/05/16 07:47:44;;;;;;;;;;;;;;;-140.72;58.30;52748.00;5092350;28;19965;-72
2023/05/16 07:50:10;;;;;;;;;;;;;;;-140.72;40.94;52719.59;5093555;28;19916;-72
2023/05/16 07:52:35;;;;;;;;;;;;;;;-140.72;27.23;52729.75;5083809;28;19995;-72
2023/05/16 07:55:01;;;;;;;;;;;;;;;-140.72;9.79;52707.41;5087108;28;20400;-72
2023/05/16 07:57:26;;;;;;;;;;;;;;;-140.72;0.00;52707.41;5081403;28;19916;-72
2023/05/16 07:59:51;;;;;;;;;;;;;;;-140.72;0.00;52703.34;5091892;28;19931;-72
2023/05/16 08:02:17;;;;;;;;;;;;;;;-140.72;0.00;52717.56;5103481;28;19923;-73
2023/05/16 08:04:42;;;;;;;;;;;;;;;-140.72;0.00;52727.72;5102637;28;19955;-71
2023/05/16 08:07:07;;;;;;;;;;;;;;;-140.72;0.00;52766.25;5109591;28;19920;-71
2023/05/16 08:09:33;;;;;;;;;;;;;;;-140.72;0.00;52727.72;5091268;28;19916;-71
2023/05/16 08:12:02;;;;;;;;;;;;;;;-140.72;0.00;52723.66;5098597;28;19973;-71
2023/05/16 08:14:27;;;;;;;;;;;;;;;-140.72;0.00;52711.47;5090537;28;20339;-71
2023/05/16 08:16:53;;;;;;;;;;;;;;;-140.72;0.00;52697.28;5094701;28;20003;-71
2023/05/16 08:19:18;;;;;;;;;;;;;;;-140.72;0.00;52760.19;5098458;28;19923;-71
2023/05/16 08:21:43;;;;;;;;;;;;;;;-140.72;0.00;52683.06;5090020;28;19916;-70
2023/05/16 08:24:10;;;;;;;;;;;;;;;-140.72;0.00;52719.59;5101406;28;19920;-71
2023/05/16 08:26:36;;;;;;;;;;;;;;;-140.72;0.00;52727.72;5096508;28;19920;-70
2023/05/16 08:29:01;;;;;;;;;;;;;;;-140.72;0.00;52725.69;5089059;28;19916;-69
2023/05/16 08:31:26;;;;;;;;;;;;;;;-140.72;0.00;52697.28;5107494;28;20342;-70
2023/05/16 08:33:52;;;;;;;;;;;;;;;-140.72;0.00;52634.38;5093825;28;20544;-70
2023/05/16 08:36:18;;;;;;;;;;;;;;;-140.72;0.00;52666.84;5096855;28;20394;-70
2023/05/16 08:38:44;;;;;;;;;;;;;;;-140.72;0.00;52691.19;5095412;28;19931;-70
2023/05/16 08:41:09;;;;;;;;;;;;;;;-140.72;0.00;52719.59;5088288;28;20286;-70
2023/05/16 08:43:35;;;;;;;;;;;;;;;-140.72;0.00;52711.47;5100901;28;19962;-70
2023/05/16 08:46:01;;;;;;;;;;;;;;;-140.72;0.00;52723.66;5089809;28;20349;-70
2023/05/16 08:48:27;;;;;;;;;;;;;;;-140.72;0.00;52638.41;5086095;28;19964;-70
2023/05/16 08:50:52;;;;;;;;;;;;;;;-140.72;0.00;52642.47;5097029;28;19939;-69
2023/05/16 08:53:20;;;;;;;;;;;;;;;-140.72;0.00;52662.78;5087683;28;20365;-70
2023/05/16 08:55:47;;;;;;;;;;;;;;;-140.72;0.00;52644.50;5081542;28;19916;-70
2023/05/16 08:58:13;;;;;;;;;;;;;;;-140.72;0.00;52622.19;5091181;28;20301;-72
2023/05/16 09:00:39;;;;;;;;;;;;;;;-140.72;0.00;52654.66;5084432;28;19916;-71
2023/05/16 09:03:04;;;;;;;;;;;;;;;-140.72;0.00;52591.75;5079249;28;19935;-72
2023/05/16 09:05:30;;;;;;;;;;;;;;;-140.72;0.00;52618.13;5083273;28;19965;-72
2023/05/16 09:07:55;;;;;;;;;;;;;;;-140.72;0.00;52543.03;5088546;28;21489;-72
2023/05/16 09:10:21;;;;;;;;;;;;;;;-140.72;0.00;52599.88;5088518;28;19916;-72
2023/05/16 09:12:46;;;;;;;;;;;;;;;-140.72;0.00;52577.53;5094764;28;20591;-72
2023/05/16 09:15:12;;;;;;;;;;;;;;;-140.72;0.00;52614.06;5092828;28;19920;-72
2023/05/16 09:17:38;;;;;;;;;;;;;;;-140.72;0.00;52532.91;5090911;28;19921;-71
2023/05/16 09:20:11;;;;;;;;;;;;;;;-140.72;0.00;52467.97;5087793;28;19924;-71
2023/05/16 09:22:36;;;;;;;;;;;;;;;-140.72;0.00;52508.56;5083079;28;19924;-72
2023/05/16 09:25:03;;;;;;;;;;;;;;;-140.72;0.00;52431.44;5086668;28;19920;-71
2023/05/16 09:27:29;;;;;;;;;;;;;;;-140.72;0.00;52417.25;5093236;28;19959;-72
2023/05/16 09:29:56;;;;;;;;;;;;;;;-140.72;0.00;52459.84;5095800;28;19927;-74
2023/05/16 09:32:22;;;;;;;;;;;;;;;-140.72;0.00;52474.06;5107924;28;19916;-72
2023/05/16 09:34:48;;;;;;;;;;;;;;;-140.72;0.00;52514.63;5099396;28;19961;-71
2023/05/16 09:37:17;;;;;;;;;;;;;;;-140.72;0.00;52508.56;5109776;28;19920;-71
2023/05/16 09:39:46;;;;;;;;;;;;;;;-140.72;0.00;52490.28;5113962;28;19919;-72
2023/05/16 09:42:12;;;;;;;;;;;;;;;-140.72;0.00;52581.59;5104050;28;20290;-71
2023/05/16 09:44:38;;;;;;;;;;;;;;;-140.72;0.00;52551.16;5086285;28;19977;-71
2023/05/16 09:47:03;;;;;;;;;;;;;;;-140.72;0.00;52577.53;5077830;28;19933;-71
2023/05/16 09:49:29;;;;;;;;;;;;;;;-140.72;0.00;52612.03;5078035;28;19940;-72
2023/05/16 09:51:55;;;;;;;;;;;;;;;-140.72;0.00;52472.03;5094851;27;20401;-72
2023/05/16 09:54:33;;;;;;;;;;;;;;;-140.72;0.00;52459.84;5076426;28;19927;-72
2023/05/16 09:56:59;;;;;;;;;;;;;;;-140.72;0.00;52488.25;5084145;28;19916;-72
2023/05/16 09:59:25;;;;;;;;;;;;;;;-140.72;0.00;52380.72;5088145;28;19916;-72
2023/05/16 10:01:51;;;;;;;;;;;;;;;-140.72;0.00;52356.38;5103015;28;20299;-72
2023/05/16 10:04:17;;;;;;;;;;;;;;;-140.72;0.00;52482.16;5086609;28;20414;-72
2023/05/16 10:06:42;;;;;;;;;;;;;;;-140.72;0.00;52524.78;5082984;28;19952;-72
2023/05/16 10:09:11;;;;;;;;;;;;;;;-140.72;0.00;52539.00;5078136;28;20011;-72
2023/05/16 10:11:37;;;;;;;;;;;;;;;-140.72;0.00;52419.28;5100444;28;19923;-72
2023/05/16 10:14:04;;;;;;;;;;;;;;;-140.72;0.00;52502.47;5092405;28;19920;-71
2023/05/16 10:16:30;;;;;;;;;;;;;;;-140.72;0.00;52398.97;5082024;28;19969;-73
2023/05/16 10:18:55;;;;;;;;;;;;;;;-140.72;0.00;52510.59;5091943;28;20274;-71
2023/05/16 10:21:21;;;;;;;;;;;;;;;-140.72;0.00;52547.09;5086078;28;19916;-71
2023/05/16 10:23:48;;;;;;;;;;;;;;;-140.72;0.00;52443.63;5089034;28;19924;-71
2023/05/16 10:26:15;;;;;;;;;;;;;;;-140.72;0.00;52358.41;5091100;28;19989;-72
2023/05/16 10:28:40;;;;;;;;;;;;;;;-140.72;0.00;52380.72;5089669;28;19920;-72
2023/05/16 10:31:06;;;;;;;;;;;;;;;-140.72;0.00;52348.25;5094980;28;20275;-72
2023/05/16 10:33:31;;;;;;;;;;;;;;;-140.72;0.00;52325.94;5094227;28;19920;-72
2023/05/16 10:35:57;;;;;;;;;;;;;;;-140.72;0.00;52297.53;5088023;28;19939;-71
2023/05/16 10:38:23;;;;;;;;;;;;;;;-140.72;0.00;52196.06;5100088;28;19919;-71
2023/05/16 10:40:49;;;;;;;;;;;;;;;-140.72;0.00;52283.31;5103801;28;19920;-72
2023/05/16 10:43:29;;;;;;;;;;;;;;;-140.72;0.00;52271.16;5084895;28;20363;-72
2023/05/16 10:45:55;;;;;;;;;;;;;;;-140.72;0.00;52315.78;5088479;28;20267;-72
2023/05/16 10:48:27;;;;;;;;;;;;;;;-140.72;0.00;52321.88;5093218;28;20003;-72
2023/05/16 10:50:53;;;;;;;;;;;;;;;-140.72;0.00;52421.28;5086502;28;19920;-72
2023/05/16 10:53:19;;;;;;;;;;;;;;;-140.72;0.00;52313.75;5095478;28;20372;-72
2023/05/16 10:55:50;;;;;;;;;;;;;;;-140.72;0.00;52315.78;5095610;28;19915;-72
2023/05/16 10:58:42;;;;;;;;;;;;;;;-140.72;0.00;52244.78;5101331;28;19920;-72
2023/05/16 11:01:18;;;;;;;;;;;;;;;-140.72;0.00;52242.75;5092825;28;20412;-72
2023/05/16 11:03:59;;;;;;;;;;;;;;;-140.72;0.00;52230.56;5085136;28;19916;-72
2023/05/16 11:06:25;;;;;;;;;;;;;;;-140.72;0.00;52236.66;5090165;28;20008;-72
2023/05/16 11:09:18;;;;;;;;;;;;;;;-140.72;0.00;52222.44;5086091;28;19916;-72
2023/05/16 11:11:49;;;;;;;;;;;;;;;-140.72;0.00;52212.31;5102961;28;19924;-72
2023/05/16 11:14:36;;;;;;;;;;;;;;;-140.72;0.00;52185.94;5087557;28;20349;-73
2023/05/16 11:17:07;;;;;;;;;;;;;;;-140.72;0.00;52200.13;5080062;28;20018;-72
2023/05/16 11:19:49;;;;;;;;;;;;;;;-140.72;0.00;52131.16;5093524;28;19942;-77
2023/05/16 11:22:17;;;;;;;;;;;;;;;-140.72;0.00;52183.91;5089951;28;19920;-77
2023/05/16 11:24:51;;;;;;;;;;;;;;;-140.72;0.00;52301.59;5089442;28;20010;-75
2023/05/16 11:27:20;;;;;;;;;;;;;;;-140.72;0.00;52435.50;5093837;28;19924;-76
2023/05/16 11:29:45;;;;;;;;;;;;;;;-140.72;0.00;52293.47;5095735;28;19916;-75
2023/05/16 11:32:11;;;;;;;;;;;;;;;-140.72;0.00;52374.63;5086682;28;19923;-70
2023/05/16 11:34:38;;;;;;;;;;;;;;;-140.72;0.00;52405.06;5095336;28;19926;-70
2023/05/16 11:37:04;;;;;;;;;;;;;;;-140.72;0.00;52409.13;5093062;28;19920;-71
2023/05/16 11:39:29;;;;;;;;;;;;;;;-140.72;0.00;52447.69;5099284;28;19938;-71
2023/05/16 11:41:54;;;;;;;;;;;;;;;-140.72;0.00;52258.97;5092206;28;19920;-71
2023/05/16 11:44:20;;;;;;;;;;;;;;;-140.72;0.00;52338.09;5090440;28;19921;-71
2023/05/16 11:46:45;;;;;;;;;;;;;;;-140.72;0.00;52394.91;5083386;28;19966;-71
2023/05/16 11:49:11;;;;;;;;;;;;;;;-140.72;0.00;52285.34;5093556;28;19916;-71
2023/05/16 11:51:39;;;;;;;;;;;;;;;-140.72;0.00;52455.78;5084999;28;19924;-71
2023/05/16 11:54:06;;;;;;;;;;;;;;;-140.72;0.00;52484.19;5084680;28;19916;-71
2023/05/16 11:56:31;;;;;;;;;;;;;;;-140.72;0.00;52386.81;5089514;28;19924;-70
2023/05/16 11:58:58;;;;;;;;;;;;;;;-140.72;0.00;52346.22;5093149;28;19927;-70
2023/05/16 12:01:23;;;;;;;;;;;;;;;-140.72;0.00;52309.69;5093266;28;20300;-71
2023/05/16 12:03:56;;;;;;;;;;;;;;;-140.72;0.00;52248.81;5103204;28;19945;-70
2023/05/16 12:06:21;;;;;;;;;;;;;;;-140.72;0.00;52368.53;5095864;28;19916;-70
2023/05/16 12:08:50;;;;;;;;;;;;;;;-140.72;0.00;52252.88;5111499;28;19920;-71
2023/05/16 12:11:16;;;;;;;;;;;;;;;-140.72;0.00;52378.69;5106330;28;19962;-71
2023/05/16 12:13:41;;;;;;;;;;;;;;;-140.72;0.00;52394.91;5092199;28;20336;-71
2023/05/16 12:16:06;;;;;;;;;;;;;;;-140.72;0.00;52275.19;5102811;28;19920;-70
2023/05/16 12:18:32;;;;;;;;;;;;;;;-140.72;0.00;52398.97;5091837;28;19966;-70
2023/05/16 12:20:57;;;;;;;;;;;;;;;-140.72;0.00;52281.28;5093117;28;20321;-70
2023/05/16 12:23:25;;;;;;;;;;;;;;;-140.72;0.00;52240.72;5102608;28;19970;-70
2023/05/16 12:25:54;;;;;;;;;;;;;;;-140.72;0.00;52240.72;5105988;28;19916;-70